Time;durP1;ratioP1;P1;durP2;ratioP2;P2;SDS_P1;SDS_P2;PMS_P1;PMS_P2;Temp;Humidity;BMP_temperature;BMP_pressure;BME280_temperature;BME280_humidity;BME280_pressure;Samples;Min_cycle;Max_cycle;Signal;HPM_P1;HPM_P2
2021/11/05 00:00:40;;;;;;;4.70;2.98;;;;;;;8.65;75.67;99766.59;1684453;84;25985;-81
2021/11/05 00:03:08;;;;;;;6.83;2.85;;;;;;;8.67;75.70;99763.72;1642668;84;25931;-81
2021/11/05 00:05:35;;;;;;;3.77;2.80;;;;;;;8.68;75.62;99756.05;1664261;84;26633;-80
2021/11/05 00:08:07;;;;;;;3.98;2.65;;;;;;;8.72;75.63;99759.47;1645284;84;27556;-80
2021/11/05 00:10:33;;;;;;;3.73;2.83;;;;;;;8.74;75.58;99766.77;1668996;84;26018;-81
2021/11/05 00:13:00;;;;;;;4.60;2.87;;;;;;;8.76;75.32;99771.41;1690251;83;25396;-81
2021/11/05 00:15:28;;;;;;;4.80;2.60;;;;;;;8.80;75.46;99771.83;1674416;84;26576;-80
2021/11/05 00:17:55;;;;;;;3.37;2.55;;;;;;;8.80;75.32;99770.49;1639811;84;25870;-80
2021/11/05 00:20:22;;;;;;;4.12;2.45;;;;;;;8.82;75.05;99781.80;1676825;84;27373;-80
2021/11/05 00:22:49;;;;;;;4.15;2.10;;;;;;;8.83;75.04;99770.91;1676503;84;25862;-80
2021/11/05 00:25:16;;;;;;;3.05;2.42;;;;;;;8.84;74.87;99777.09;1651681;84;25843;-80
2021/11/05 00:27:43;;;;;;;3.58;2.40;;;;;;;8.85;74.85;99770.74;1646320;84;26391;-81
2021/11/05 00:30:12;;;;;;;4.15;1.98;;;;;;;8.85;74.86;99773.41;1651813;84;25398;-81
2021/11/05 00:32:40;;;;;;;4.00;2.30;;;;;;;8.85;74.57;99769.41;1691748;84;27441;-82
2021/11/05 00:35:08;;;;;;;5.90;2.20;;;;;;;8.87;74.37;99787.39;1651721;84;25987;-80
2021/11/05 00:37:35;;;;;;;2.95;2.22;;;;;;;8.88;74.59;99775.17;1696887;83;25857;-81
2021/11/05 00:40:04;;;;;;;3.25;2.45;;;;;;;8.89;74.04;99770.66;1654001;84;25836;-81
2021/11/05 00:42:31;;;;;;;3.35;2.25;;;;;;;8.90;74.24;99774.46;1693964;84;25350;-80
2021/11/05 00:44:58;;;;;;;3.77;2.47;;;;;;;8.91;74.24;99780.64;1648909;84;28141;-80
2021/11/05 00:47:25;;;;;;;3.27;1.82;;;;;;;8.92;74.21;99783.61;1650220;84;25840;-80
2021/11/05 00:49:52;;;;;;;4.00;2.35;;;;;;;8.94;73.71;99777.59;1653680;84;26587;-80
2021/11/05 00:52:18;;;;;;;2.95;2.33;;;;;;;8.96;73.61;99782.22;1691595;84;25896;-80
2021/11/05 00:54:46;;;;;;;3.08;1.95;;;;;;;8.98;74.06;99782.84;1651007;84;26023;-80
2021/11/05 00:57:13;;;;;;;3.37;2.08;;;;;;;8.98;73.92;99786.32;1650151;84;28123;-81
2021/11/05 00:59:40;;;;;;;3.33;2.20;;;;;;;9.00;73.72;99796.30;1653744;84;25930;-80
2021/11/05 01:02:08;;;;;;;2.35;1.75;;;;;;;9.01;73.71;99783.27;1693522;84;25795;-80
2021/11/05 01:04:35;;;;;;;2.35;1.98;;;;;;;9.03;73.70;99783.06;1656012;84;25788;-80
2021/11/05 01:07:02;;;;;;;3.87;2.47;;;;;;;9.05;73.66;99785.02;1647270;84;26679;-81
2021/11/05 01:09:30;;;;;;;3.70;1.82;;;;;;;9.06;73.58;99788.03;1653348;84;28312;-80
2021/11/05 01:11:57;;;;;;;2.40;1.90;;;;;;;9.07;73.51;99797.17;1691050;84;25861;-80
2021/11/05 01:14:24;;;;;;;3.42;2.05;;;;;;;9.08;73.67;99789.48;1642095;85;26566;-81
2021/11/05 01:16:51;;;;;;;2.95;2.08;;;;;;;9.08;73.34;99781.47;1672460;84;26154;-80
2021/11/05 01:19:19;;;;;;;5.35;2.10;;;;;;;9.11;73.20;99801.63;1609791;85;25879;-80
2021/11/05 01:21:46;;;;;;;4.90;2.37;;;;;;;9.13;73.46;99798.25;1667546;84;27460;-80
2021/11/05 01:24:13;;;;;;;2.60;1.90;;;;;;;9.13;73.13;99796.38;1648531;84;25605;-80
2021/11/05 01:26:40;;;;;;;3.02;2.27;;;;;;;9.14;73.13;99799.38;1644211;83;26522;-80
2021/11/05 01:29:07;;;;;;;3.65;1.82;;;;;;;9.14;72.95;99808.73;1645605;84;25951;-82
2021/11/05 01:31:34;;;;;;;4.75;2.00;;;;;;;9.13;72.91;99792.38;1673300;84;25809;-80
2021/11/05 01:34:01;;;;;;;3.75;1.98;;;;;;;9.13;72.81;99804.39;1646581;84;27483;-81
2021/11/05 01:36:28;;;;;;;2.95;2.02;;;;;;;9.14;72.91;99814.58;1647710;84;25972;-81
2021/11/05 01:38:55;;;;;;;3.55;2.08;;;;;;;9.13;73.02;99813.75;1644690;83;25975;-80
2021/11/05 01:41:24;;;;;;;2.33;1.75;;;;;;;9.16;73.09;99817.37;1693222;84;25858;-81
2021/11/05 01:43:51;;;;;;;1.92;1.70;;;;;;;9.15;72.56;99825.06;1646312;84;26380;-81
2021/11/05 01:46:20;;;;;;;4.25;1.90;;;;;;;9.16;73.05;99819.21;1672089;84;28164;-81
2021/11/05 01:48:47;;;;;;;2.50;1.82;;;;;;;9.17;72.68;99824.88;1650378;84;25881;-80
2021/11/05 01:51:15;;;;;;;3.65;2.10;;;;;;;9.17;73.10;99832.37;1691371;84;25762;-80
2021/11/05 01:53:43;;;;;;;2.40;1.95;;;;;;;9.18;73.04;99835.37;1647646;84;25692;-80
2021/11/05 01:56:10;;;;;;;2.45;1.90;;;;;;;9.17;72.88;99835.03;1641292;84;25809;-80
2021/11/05 01:58:37;;;;;;;2.20;1.77;;;;;;;9.17;72.75;99832.37;1671189;84;28125;-80
2021/11/05 02:01:04;;;;;;;4.15;1.77;;;;;;;9.18;72.21;99839.38;1694855;84;25785;-81
2021/11/05 02:03:31;;;;;;;2.30;1.62;;;;;;;9.19;72.75;99839.70;1658416;84;26028;-80
2021/11/05 02:06:01;;;;;;;2.20;2.00;;;;;;;9.21;72.86;99839.00;1650296;84;25783;-81
2021/11/05 02:08:29;;;;;;;5.67;2.02;;;;;;;9.20;72.56;99844.02;1642567;84;26545;-80
2021/11/05 02:10:57;;;;;;;1.77;1.67;;;;;;;9.22;72.65;99853.16;1655974;86;27540;-80
2021/11/05 02:13:27;;;;;;;1.92;1.72;;;;;;;9.23;72.46;99846.81;1646531;84;25902;-81
2021/11/05 02:15:56;;;;;;;2.80;2.05;;;;;;;9.22;72.64;99838.46;1688171;84;25773;-81
2021/11/05 02:18:24;;;;;;;2.55;2.08;;;;;;;9.21;72.45;99841.67;1647354;84;26670;-81
2021/11/05 02:20:56;;;;;;;2.12;1.72;;;;;;;9.21;72.48;99846.18;1686780;84;25854;-80
2021/11/05 02:23:25;;;;;;;2.72;1.77;;;;;;;9.19;72.39;99850.39;1642467;84;27603;-81
2021/11/05 02:25:52;;;;;;;3.15;1.92;;;;;;;9.20;72.34;99841.34;1669381;84;26260;-80
2021/11/05 02:28:19;;;;;;;1.90;1.30;;;;;;;9.20;71.94;99853.36;1648011;84;26057;-81
2021/11/05 02:30:47;;;;;;;4.03;1.57;;;;;;;9.21;72.29;99861.70;1684865;84;26502;-81
2021/11/05 02:33:14;;;;;;;3.15;1.92;;;;;;;9.22;72.33;99863.34;1646702;84;25770;-80
2021/11/05 02:35:42;;;;;;;3.50;1.60;;;;;;;9.22;72.30;99870.53;1637851;84;27495;-81
2021/11/05 02:38:09;;;;;;;3.85;1.87;;;;;;;9.23;72.20;99869.52;1669718;84;25859;-81
2021/11/05 02:40:36;;;;;;;2.12;1.45;;;;;;;9.24;72.16;99867.98;1686656;84;25766;-80
2021/11/05 02:43:03;;;;;;;2.27;1.60;;;;;;;9.24;72.12;99868.48;1647608;84;25887;-82
2021/11/05 02:45:30;;;;;;;2.65;1.50;;;;;;;9.24;71.93;99877.84;1608527;84;25868;-80
2021/11/05 02:47:57;;;;;;;2.65;1.80;;;;;;;9.25;71.59;99872.82;1650439;84;28346;-80
2021/11/05 02:50:24;;;;;;;1.52;1.22;;;;;;;9.27;71.87;99874.78;1686459;84;26544;-81
2021/11/05 02:52:51;;;;;;;2.50;1.47;;;;;;;9.28;72.08;99880.46;1645650;84;26074;-80
2021/11/05 02:55:18;;;;;;;2.52;1.50;;;;;;;9.28;71.58;99877.78;1640481;84;25837;-80
2021/11/05 02:57:46;;;;;;;1.70;1.50;;;;;;;9.30;71.60;99884.56;1643623;84;25983;-81
2021/11/05 03:00:14;;;;;;;2.87;1.75;;;;;;;9.30;71.73;99881.89;1688990;84;27460;-82
2021/11/05 03:02:42;;;;;;;3.62;1.55;;;;;;;9.32;71.13;99881.18;1642566;84;25996;-80
2021/11/05 03:05:10;;;;;;;2.40;1.42;;;;;;;9.35;71.27;99879.97;1643077;84;25850;-81
2021/11/05 03:07:38;;;;;;;3.45;1.67;;;;;;;9.35;71.47;99887.98;1645104;86;26622;-81
2021/11/05 03:10:07;;;;;;;3.22;1.60;;;;;;;9.37;70.97;99890.48;1686804;84;25850;-80
2021/11/05 03:12:34;;;;;;;1.52;1.42;;;;;;;9.37;70.15;99891.82;1642752;84;27579;-80
2021/11/05 03:15:02;;;;;;;1.95;1.52;;;;;;;9.39;70.22;99905.28;1608003;85;26355;-81
2021/11/05 03:17:30;;;;;;;3.50;1.35;;;;;;;9.40;71.05;99904.27;1593718;87;25908;-80
2021/11/05 03:19:57;;;;;;;2.72;1.75;;;;;;;9.41;71.14;99907.78;1655348;86;26581;-81
2021/11/05 03:22:24;;;;;;;2.12;1.50;;;;;;;9.42;70.40;99924.95;1628871;86;25836;-81
2021/11/05 03:24:51;;;;;;;2.02;1.27;;;;;;;9.42;70.71;99924.95;1626689;86;27441;-81
2021/11/05 03:27:19;;;;;;;2.50;1.52;;;;;;;9.42;70.74;99928.12;1623908;86;25888;-81
2021/11/05 03:29:46;;;;;;;3.37;1.70;;;;;;;9.41;70.81;99925.95;1625304;86;25901;-81
2021/11/05 03:32:13;;;;;;;2.22;1.80;;;;;;;9.41;71.08;99929.97;1605020;87;26660;-81
2021/11/05 03:34:40;;;;;;;2.12;1.87;;;;;;;9.41;71.08;99930.50;1593111;87;26678;-81
2021/11/05 03:37:07;;;;;;;2.17;1.75;;;;;;;9.39;71.19;99934.68;1624288;86;27556;-81
2021/11/05 03:39:35;;;;;;;2.95;1.90;;;;;;;9.39;71.18;99932.01;1626262;87;25900;-80
2021/11/05 03:42:04;;;;;;;1.90;1.67;;;;;;;9.38;71.39;99939.73;1650913;86;25905;-80
2021/11/05 03:44:32;;;;;;;1.98;1.60;;;;;;;9.36;71.27;99943.11;1612988;86;26598;-81
2021/11/05 03:46:59;;;;;;;2.87;2.02;;;;;;;9.36;71.41;99942.27;1600478;88;26209;-81
2021/11/05 03:49:29;;;;;;;3.12;1.72;;;;;;;9.36;71.61;99940.94;1623768;86;27522;-81
2021/11/05 03:51:57;;;;;;;2.45;1.90;;;;;;;9.34;71.62;99947.83;1657783;86;25336;-81
2021/11/05 03:54:25;;;;;;;2.33;1.72;;;;;;;9.30;71.58;99944.69;1596274;86;25981;-81
2021/11/05 03:56:52;;;;;;;4.03;2.37;;;;;;;9.28;71.42;99949.94;1650270;85;26722;-81
2021/11/05 03:59:19;;;;;;;2.45;2.10;;;;;;;9.26;71.73;99952.78;1656165;86;25319;-80
2021/11/05 04:01:46;;;;;;;2.55;1.95;;;;;;;9.27;71.90;99946.94;1650426;86;27441;-81
2021/11/05 04:04:13;;;;;;;3.95;2.15;;;;;;;9.27;71.68;99957.63;1599493;86;26065;-80
2021/11/05 04:06:41;;;;;;;2.12;1.92;;;;;;;9.26;71.65;99962.14;1626705;86;25338;-81
2021/11/05 04:09:09;;;;;;;2.25;1.70;;;;;;;9.23;71.73;99954.53;1620292;86;26444;-81
2021/11/05 04:11:36;;;;;;;3.15;2.25;;;;;;;9.24;71.68;99960.67;1630366;86;25917;-81
2021/11/05 04:14:03;;;;;;;2.52;1.92;;;;;;;9.23;71.47;99968.39;1606977;85;27494;-81
2021/11/05 04:16:31;;;;;;;2.50;2.10;;;;;;;9.25;71.49;99969.86;1639615;86;26550;-79
2021/11/05 04:18:58;;;;;;;2.27;2.08;;;;;;;9.26;71.04;99971.49;1636256;85;25975;-81
2021/11/05 04:21:25;;;;;;;2.52;1.75;;;;;;;9.28;70.98;99980.14;1618151;85;25786;-81
2021/11/05 04:23:52;;;;;;;2.22;1.70;;;;;;;9.31;71.29;99977.59;1596600;85;25804;-81
2021/11/05 04:26:19;;;;;;;2.22;1.70;;;;;;;9.31;71.03;99981.10;1639614;85;27482;-81
2021/11/05 04:28:46;;;;;;;2.37;1.90;;;;;;;9.34;71.13;99986.05;1669892;84;25995;-81
2021/11/05 04:31:13;;;;;;;3.87;1.92;;;;;;;9.37;71.06;99997.40;1668530;85;26021;-81
2021/11/05 04:33:41;;;;;;;2.65;1.90;;;;;;;9.39;70.37;99988.67;1597332;85;25931;-80
2021/11/05 04:36:08;;;;;;;2.60;1.90;;;;;;;9.41;70.42;99995.45;1671867;84;25880;-81
2021/11/05 04:38:35;;;;;;;2.30;2.10;;;;;;;9.42;70.20;99998.96;1671987;84;27536;-79
2021/11/05 04:41:02;;;;;;;3.35;2.08;;;;;;;9.43;70.18;100002.77;1666097;85;26718;-81
2021/11/05 04:43:29;;;;;;;2.95;2.00;;;;;;;9.44;70.36;100001.77;1596535;85;25914;-80
2021/11/05 04:45:56;;;;;;;3.52;2.00;;;;;;;9.45;70.00;100006.10;1650583;85;25850;-80
2021/11/05 04:48:23;;;;;;;2.22;1.80;;;;;;;9.46;70.02;100017.09;1637654;85;25792;-81
2021/11/05 04:50:51;;;;;;;2.67;1.90;;;;;;;9.47;70.21;100010.74;1667894;85;27150;-81
2021/11/05 04:53:18;;;;;;;5.80;2.10;;;;;;;9.48;69.88;100015.55;1643604;84;25973;-81
2021/11/05 04:55:45;;;;;;;2.00;1.77;;;;;;;9.47;70.20;100016.59;1621862;85;25836;-80
2021/11/05 04:58:12;;;;;;;2.25;1.75;;;;;;;9.47;69.69;100021.44;1640846;85;26575;-81
2021/11/05 05:00:39;;;;;;;2.50;1.80;;;;;;;9.47;70.13;100021.94;1665685;85;25757;-80
2021/11/05 05:03:06;;;;;;;2.85;2.05;;;;;;;9.47;69.99;100024.61;1580321;85;28317;-81
2021/11/05 05:05:35;;;;;;;4.58;2.02;;;;;;;9.47;69.53;100029.95;1594032;85;43793;-81
2021/11/05 05:08:02;;;;;;;3.50;2.27;;;;;;;9.47;69.76;100037.98;1637961;84;26218;-81
2021/11/05 05:10:30;;;;;;;4.17;2.40;;;;;;;9.47;69.81;100046.83;1639617;86;26129;-81
2021/11/05 05:12:57;;;;;;;4.30;2.20;;;;;;;9.47;69.78;100052.18;1617799;85;25976;-81
2021/11/05 05:15:24;;;;;;;2.72;2.15;;;;;;;9.49;69.66;100046.12;1613879;87;27654;-80
2021/11/05 05:17:51;;;;;;;2.27;2.00;;;;;;;9.49;69.53;100060.00;1587425;88;25861;-81
2021/11/05 05:20:20;;;;;;;3.72;2.10;;;;;;;9.48;69.72;100061.84;1637124;87;25805;-81
2021/11/05 05:22:48;;;;;;;3.55;1.95;;;;;;;9.48;69.76;100063.17;1619265;87;25843;-81
2021/11/05 05:25:17;;;;;;;3.00;2.27;;;;;;;9.49;69.60;100065.34;1594768;86;25766;-81
2021/11/05 05:27:46;;;;;;;3.95;1.98;;;;;;;9.48;69.96;100069.86;1616644;86;28176;-81
2021/11/05 05:30:16;;;;;;;2.77;2.08;;;;;;;9.49;69.78;100078.20;1637257;87;25961;-81
2021/11/05 05:32:46;;;;;;;3.85;2.37;;;;;;;9.48;69.49;100081.89;1635927;86;25930;-81
2021/11/05 05:35:14;;;;;;;3.25;2.30;;;;;;;9.47;69.70;100080.75;1619492;86;25942;-81
2021/11/05 05:37:42;;;;;;;3.42;2.17;;;;;;;9.48;69.96;100089.07;1615980;86;25902;-80
2021/11/05 05:40:11;;;;;;;3.25;2.15;;;;;;;9.47;69.79;100090.11;1635852;87;27132;-81
2021/11/05 05:42:38;;;;;;;4.17;2.75;;;;;;;9.46;69.54;100090.61;1620582;86;25879;-81
2021/11/05 05:45:07;;;;;;;3.98;2.25;;;;;;;9.47;69.77;100091.45;1588285;87;26109;-81
2021/11/05 05:47:35;;;;;;;3.10;2.50;;;;;;;9.47;69.59;100104.81;1599654;87;26457;-81
2021/11/05 05:50:06;;;;;;;2.40;1.98;;;;;;;9.46;70.01;100113.34;1623738;87;25972;-81
2021/11/05 05:52:33;;;;;;;3.50;2.25;;;;;;;9.46;70.01;100110.66;1616740;87;27441;-81
2021/11/05 05:55:00;;;;;;;3.27;2.15;;;;;;;9.45;70.26;100125.06;1571720;89;26642;-81
2021/11/05 05:57:27;;;;;;;3.33;2.85;;;;;;;9.44;70.41;100128.73;1632845;86;26193;-81
2021/11/05 05:59:54;;;;;;;3.50;2.65;;;;;;;9.43;70.52;100135.63;1632791;87;25791;-81
2021/11/05 06:02:22;;;;;;;4.53;3.20;;;;;;;9.40;70.57;100131.98;1625367;86;25985;-80
2021/11/05 06:04:49;;;;;;;5.03;3.58;;;;;;;9.38;70.35;100140.70;1580872;87;27528;-81
2021/11/05 06:07:16;;;;;;;3.33;2.70;;;;;;;9.35;70.58;100141.91;1637841;86;25801;-81
2021/11/05 06:09:43;;;;;;;5.65;2.85;;;;;;;9.33;70.66;100153.29;1637145;86;26057;-82
2021/11/05 06:12:10;;;;;;;4.62;3.05;;;;;;;9.30;70.70;100153.69;1663303;85;26996;-81
2021/11/05 06:14:38;;;;;;;3.70;3.00;;;;;;;9.29;70.70;100157.36;1631757;83;25856;-81
2021/11/05 06:17:05;;;;;;;4.28;3.27;;;;;;;9.27;70.86;100159.40;1661701;84;27465;-81
2021/11/05 06:19:32;;;;;;;6.45;3.45;;;;;;;9.27;71.05;100158.06;1694100;84;25897;-80
2021/11/05 06:21:59;;;;;;;4.78;2.98;;;;;;;9.26;71.04;100171.09;1656862;84;25910;-81
2021/11/05 06:24:26;;;;;;;4.40;3.02;;;;;;;9.26;70.94;100175.94;1591416;86;27203;-81
2021/11/05 06:26:53;;;;;;;4.47;3.15;;;;;;;9.24;70.92;100180.64;1626457;86;25843;-81
2021/11/05 06:29:20;;;;;;;7.42;3.77;;;;;;;9.23;70.93;100184.34;1649439;86;27478;-81
2021/11/05 06:31:47;;;;;;;5.83;3.65;;;;;;;9.23;71.17;100190.19;1626900;86;25907;-80
2021/11/05 06:34:14;;;;;;;5.47;4.03;;;;;;;9.21;71.03;100190.39;1581405;87;25885;-81
2021/11/05 06:36:41;;;;;;;5.30;3.60;;;;;;;9.20;71.23;100190.05;1573728;86;25904;-81
2021/11/05 06:39:10;;;;;;;4.17;3.08;;;;;;;9.20;71.37;100200.74;1650540;86;25934;-81
2021/11/05 06:41:37;;;;;;;5.72;3.33;;;;;;;9.21;71.46;100202.41;1634692;86;27172;-80
2021/11/05 06:44:04;;;;;;;4.65;3.83;;;;;;;9.20;71.23;100206.59;1613227;86;26745;-82
2021/11/05 06:46:31;;;;;;;4.58;3.30;;;;;;;9.18;71.39;100208.12;1621109;86;25921;-83
2021/11/05 06:48:58;;;;;;;5.83;3.75;;;;;;;9.18;71.58;100211.30;1654132;86;25967;-81
2021/11/05 06:51:25;;;;;;;5.28;4.15;;;;;;;9.17;71.48;100225.16;1624747;86;25821;-81
2021/11/05 06:53:52;;;;;;;9.60;4.15;;;;;;;9.15;71.49;100225.85;1610572;86;27662;-81
2021/11/05 06:56:19;;;;;;;7.78;4.53;;;;;;;9.16;71.58;100226.69;1617637;86;26010;-81
2021/11/05 06:58:47;;;;;;;6.15;3.95;;;;;;;9.15;71.59;100231.73;1653612;86;25862;-81
2021/11/05 07:01:16;;;;;;;5.17;3.65;;;;;;;9.14;71.32;100231.39;1625955;86;26539;-81
2021/11/05 07:03:43;;;;;;;5.50;3.90;;;;;;;9.12;71.36;100232.92;1583837;86;25902;-81
2021/11/05 07:06:10;;;;;;;6.70;4.30;;;;;;;9.13;71.54;100233.76;1590495;87;28372;-81
2021/11/05 07:08:37;;;;;;;6.55;4.10;;;;;;;9.13;71.56;100239.91;1608137;86;25825;-81
2021/11/05 07:11:04;;;;;;;6.10;4.08;;;;;;;9.13;71.56;100237.77;1655411;86;25764;-81
2021/11/05 07:13:31;;;;;;;7.05;4.92;;;;;;;9.13;71.50;100250.59;1649984;86;25947;-81
2021/11/05 07:15:58;;;;;;;4.97;3.75;;;;;;;9.14;71.66;100241.58;1612724;85;26130;-81
2021/11/05 07:18:25;;;;;;;6.67;3.90;;;;;;;9.14;71.62;100248.76;1649334;85;27592;-80
2021/11/05 07:20:52;;;;;;;7.95;3.45;;;;;;;9.12;71.28;100248.95;1668650;85;25913;-81
2021/11/05 07:23:19;;;;;;;7.30;4.03;;;;;;;9.12;71.19;100260.14;1665808;85;25865;-80
2021/11/05 07:25:47;;;;;;;6.92;3.77;;;;;;;9.12;71.57;100258.30;1639814;85;25822;-80
2021/11/05 07:28:14;;;;;;;7.47;4.17;;;;;;;9.13;71.34;100259.95;1618379;85;25702;-81
2021/11/05 07:30:41;;;;;;;6.95;4.17;;;;;;;9.11;71.09;100264.65;1669294;85;27422;-81
2021/11/05 07:33:09;;;;;;;6.55;3.90;;;;;;;9.12;71.24;100271.66;1669667;85;25934;-81
2021/11/05 07:35:36;;;;;;;5.62;3.98;;;;;;;9.16;70.85;100270.78;1617607;85;25814;-81
2021/11/05 07:38:03;;;;;;;6.85;3.58;;;;;;;9.22;71.38;100277.55;1596943;85;26664;-81
2021/11/05 07:40:32;;;;;;;5.58;3.67;;;;;;;9.30;71.20;100277.44;1654412;85;26203;-82
2021/11/05 07:42:59;;;;;;;9.28;4.50;;;;;;;9.42;71.07;100279.64;1670216;85;27564;-81
2021/11/05 07:45:27;;;;;;;6.08;4.25;;;;;;;9.49;71.33;100284.57;1618245;85;25930;-81
2021/11/05 07:47:56;;;;;;;6.42;3.87;;;;;;;9.55;70.67;100284.66;1620233;85;25951;-81
2021/11/05 07:50:26;;;;;;;5.97;4.05;;;;;;;9.58;70.49;100285.59;1666756;84;25890;-80
2021/11/05 07:52:53;;;;;;;4.85;3.62;;;;;;;9.58;70.19;100286.12;1671113;85;25381;-81
2021/11/05 07:55:20;;;;;;;4.55;3.85;;;;;;;9.59;70.45;100283.75;1640207;85;27558;-81
2021/11/05 07:57:47;;;;;;;7.08;4.05;;;;;;;9.58;70.29;100285.59;1646861;84;25938;-81
2021/11/05 08:00:15;;;;;;;7.28;4.45;;;;;;;9.58;70.04;100285.59;1668465;85;25826;-81
2021/11/05 08:02:43;;;;;;;5.22;4.10;;;;;;;9.64;70.13;100285.37;1670858;85;25956;-81
2021/11/05 08:05:11;;;;;;;7.67;4.00;;;;;;;9.66;69.97;100287.34;1623422;85;25954;-80
2021/11/05 08:07:39;;;;;;;5.12;4.40;;;;;;;9.66;69.65;100296.70;1646895;85;26868;-81
2021/11/05 08:10:08;;;;;;;6.58;4.12;;;;;;;9.64;69.90;100300.08;1669583;85;25833;-82
2021/11/05 08:12:37;;;;;;;4.83;3.72;;;;;;;9.63;69.49;100303.75;1617879;85;26795;-81
2021/11/05 08:15:05;;;;;;;4.08;3.02;;;;;;;9.60;69.43;100307.63;1631234;85;25798;-81
2021/11/05 08:17:32;;;;;;;5.35;3.83;;;;;;;9.60;69.37;100300.94;1625673;85;26031;-81
2021/11/05 08:19:59;;;;;;;7.35;4.28;;;;;;;9.60;69.53;100307.63;1641748;85;28385;-81
2021/11/05 08:22:26;;;;;;;6.05;3.80;;;;;;;9.61;69.83;100311.97;1673874;85;25906;-81
2021/11/05 08:24:54;;;;;;;6.00;3.67;;;;;;;9.66;70.16;100318.09;1616199;87;25395;-81
2021/11/05 08:27:21;;;;;;;5.90;3.90;;;;;;;9.75;70.19;100326.34;1616830;85;25839;-81
2021/11/05 08:29:49;;;;;;;5.37;4.10;;;;;;;9.81;69.97;100319.73;1674212;85;25825;-81
2021/11/05 08:32:16;;;;;;;5.75;4.53;;;;;;;9.84;70.37;100343.41;1673815;85;27564;-81
2021/11/05 08:34:43;;;;;;;5.65;4.17;;;;;;;9.88;70.04;100331.84;1606115;86;26716;-82
2021/11/05 08:37:11;;;;;;;5.53;3.90;;;;;;;9.88;69.77;100346.03;1620673;87;25850;-81
2021/11/05 08:39:39;;;;;;;5.95;4.25;;;;;;;9.89;69.68;100337.00;1663146;84;26684;-81
2021/11/05 08:42:07;;;;;;;4.95;3.67;;;;;;;9.90;69.79;100333.83;1665782;84;25766;-81
2021/11/05 08:44:34;;;;;;;5.28;4.65;;;;;;;9.91;69.58;100332.29;1643480;84;28241;-80
2021/11/05 08:47:02;;;;;;;5.85;4.50;;;;;;;9.95;69.73;100343.43;1588440;86;25831;-82
2021/11/05 08:49:29;;;;;;;5.75;4.10;;;;;;;9.96;69.52;100353.97;1686887;84;26414;-82
2021/11/05 08:51:56;;;;;;;7.92;4.65;;;;;;;9.96;69.55;100364.67;1686387;84;25872;-81
2021/11/05 08:54:24;;;;;;;5.33;3.98;;;;;;;9.97;69.92;100368.98;1618573;86;25943;-81
2021/11/05 08:56:51;;;;;;;7.17;4.55;;;;;;;9.99;69.69;100377.66;1619146;86;27419;-81
2021/11/05 08:59:21;;;;;;;6.20;3.90;;;;;;;10.01;69.85;100384.98;1687756;84;25828;-80
2021/11/05 09:01:48;;;;;;;7.33;3.95;;;;;;;10.01;69.47;100382.30;1682213;84;25953;-81
2021/11/05 09:04:17;;;;;;;6.30;3.92;;;;;;;9.98;69.70;100386.72;1639143;84;25916;-81
2021/11/05 09:06:46;;;;;;;5.60;4.20;;;;;;;9.97;69.86;100393.56;1639500;84;25333;-81
2021/11/05 09:09:15;;;;;;;5.75;4.03;;;;;;;9.94;69.99;100397.98;1684427;84;28211;-81
2021/11/05 09:11:42;;;;;;;5.62;4.22;;;;;;;9.92;69.91;100402.69;1684076;84;25860;-81
2021/11/05 09:14:09;;;;;;;7.42;4.75;;;;;;;9.90;69.96;100418.91;1642270;84;25835;-82
2021/11/05 09:16:36;;;;;;;6.95;4.37;;;;;;;9.88;69.92;100422.27;1643957;84;26368;-81
2021/11/05 09:19:03;;;;;;;8.20;4.25;;;;;;;9.86;70.04;100419.45;1689202;84;25869;-82
2021/11/05 09:21:32;;;;;;;4.92;4.03;;;;;;;9.83;69.72;100427.88;1687233;84;28162;-81
2021/11/05 09:24:01;;;;;;;6.12;4.53;;;;;;;9.81;70.03;100441.45;1641995;84;25840;-81
2021/11/05 09:26:28;;;;;;;5.87;4.85;;;;;;;9.78;69.66;100436.95;1645400;84;25910;-81
2021/11/05 09:28:56;;;;;;;7.22;5.17;;;;;;;9.75;70.07;100444.84;1689220;84;25900;-80
2021/11/05 09:31:23;;;;;;;10.72;7.10;;;;;;;9.75;70.19;100440.02;1689558;84;25808;-82
2021/11/05 09:33:51;;;;;;;5.62;4.47;;;;;;;9.72;70.65;100451.91;1641612;83;27526;-81
2021/11/05 09:36:18;;;;;;;6.47;3.10;;;;;;;9.72;71.17;100450.58;1641659;84;25870;-81
2021/11/05 09:38:46;;;;;;;3.42;3.00;;;;;;;9.69;71.61;100451.42;1689449;84;25824;-80
2021/11/05 09:41:13;;;;;;;4.12;2.33;;;;;;;9.61;71.58;100444.34;1665492;85;26466;-80
2021/11/05 09:43:41;;;;;;;3.22;1.62;;;;;;;9.55;71.77;100456.28;1618979;85;25865;-80
2021/11/05 09:46:08;;;;;;;3.20;1.80;;;;;;;9.51;71.87;100471.87;1619954;85;27408;-81
2021/11/05 09:48:37;;;;;;;2.33;1.80;;;;;;;9.47;72.08;100478.59;1669892;85;25920;-81
2021/11/05 09:51:08;;;;;;;2.12;1.57;;;;;;;9.42;72.37;100490.33;1662149;84;25744;-80
2021/11/05 09:53:38;;;;;;;3.80;2.37;;;;;;;9.42;72.90;100485.48;1639738;85;25918;-80
2021/11/05 09:56:09;;;;;;;1.98;1.40;;;;;;;9.43;73.31;100475.94;1597610;85;26395;-79
2021/11/05 09:58:38;;;;;;;1.75;1.10;;;;;;;9.46;72.91;100477.42;1667853;85;27512;-80
2021/11/05 10:01:06;;;;;;;1.37;1.07;;;;;;;9.47;72.48;100477.76;1669271;85;25800;-81
2021/11/05 10:03:33;;;;;;;1.10;0.88;;;;;;;9.46;72.37;100487.61;1618649;85;25932;-80
2021/11/05 10:06:01;;;;;;;0.90;0.78;;;;;;;9.44;72.33;100490.98;1597128;85;25930;-80
2021/11/05 10:08:33;;;;;;;1.40;1.10;;;;;;;9.44;72.63;100498.16;1668671;85;25759;-80
2021/11/05 10:11:22;;;;;;;3.45;1.20;;;;;;;9.47;72.96;100505.83;1670457;85;28154;-82
2021/11/05 10:13:49;;;;;;;1.87;1.20;;;;;;;9.58;73.45;100523.58;1652000;85;26061;-81
2021/11/05 10:16:19;;;;;;;1.75;1.17;;;;;;;9.71;73.16;100521.11;1613688;86;26407;-80
2021/11/05 10:19:06;;;;;;;1.13;0.83;;;;;;;9.81;73.02;100528.89;1633614;85;26491;-80
2021/11/05 10:21:44;;;;;;;1.10;1.00;;;;;;;9.83;72.43;100535.72;1657869;86;25802;-80
2021/11/05 10:24:15;;;;;;;1.20;1.10;;;;;;;9.80;72.24;100533.90;1628726;86;27650;-81
2021/11/05 10:26:42;;;;;;;;;;;;;;;9.80;72.89;100545.94;1581889;86;26015;-81
2021/11/05 10:29:29;;;;;;;3.20;1.20;;;;;;;9.78;72.47;100537.27;1656764;86;25762;-81
2021/11/05 10:32:06;;;;;;;16.60;6.67;;;;;;;9.72;72.52;100540.67;1628207;86;25938;-81
2021/11/05 10:34:49;;;;;;;2.92;2.22;;;;;;;9.73;72.99;100548.51;1629291;86;25911;-81
2021/11/05 10:37:33;;;;;;;2.10;1.50;;;;;;;9.78;73.18;100550.14;1632993;86;27568;-81
2021/11/05 10:40:03;;;;;;;1.72;1.20;;;;;;;9.83;73.34;100541.07;1655893;86;25895;-81
2021/11/05 10:42:34;;;;;;;2.03;1.40;;;;;;;9.85;73.30;100547.56;1658161;86;25953;-82
2021/11/05 10:45:21;;;;;;;2.87;1.10;;;;;;;9.87;73.22;100559.75;1591095;86;25830;-80
2021/11/05 10:47:59;;;;;;;2.17;1.32;;;;;;;9.88;72.80;100561.93;1611588;86;25850;-81
2021/11/05 10:50:50;;;;;;;1.75;1.30;;;;;;;9.84;72.86;100564.62;1632883;86;27495;-81
2021/11/05 10:53:26;;;;;;;1.42;1.30;;;;;;;9.81;73.17;100565.00;1657723;86;26006;-82
2021/11/05 10:56:07;;;;;;;1.95;1.65;;;;;;;9.78;73.15;100566.69;1615349;86;26601;-81
2021/11/05 10:58:39;;;;;;;3.90;1.70;;;;;;;9.75;73.07;100576.44;1657875;86;25908;-82
2021/11/05 11:01:11;;;;;;;2.85;2.17;;;;;;;9.71;73.07;100577.81;1657833;86;26596;-81
2021/11/05 11:03:48;;;;;;;3.35;2.85;;;;;;;9.69;73.25;100563.27;1657968;85;27538;-81
2021/11/05 11:06:26;;;;;;;3.00;1.52;;;;;;;9.72;73.49;100568.27;1607564;86;25930;-81
2021/11/05 11:08:57;;;;;;;6.50;3.65;;;;;;;9.76;73.56;100572.23;1631391;86;25917;-80
2021/11/05 11:11:30;;;;;;;;;;;;;;;9.76;73.51;100571.39;1635389;86;25854;-81
2021/11/05 11:14:10;;;;;;;4.20;3.75;;;;;;;9.77;73.63;100577.08;1632930;86;25774;-81
2021/11/05 11:16:49;;;;;;;4.90;2.55;;;;;;;9.76;73.72;100577.58;1633407;85;27549;-80
2021/11/05 11:19:20;;;;;;;4.55;3.85;;;;;;;9.79;73.70;100581.73;1658301;85;25934;-82
2021/11/05 11:21:54;;;;;;;2.58;2.37;;;;;;;9.83;73.44;100583.88;1662228;84;26241;-81
2021/11/05 11:24:26;;;;;;;2.33;1.95;;;;;;;9.85;73.50;100589.87;1632764;87;26435;-81
2021/11/05 11:26:55;;;;;;;3.67;1.60;;;;;;;9.88;73.21;100583.33;1604102;86;26789;-81
2021/11/05 11:29:25;;;;;;;3.72;2.30;;;;;;;9.89;72.94;100589.83;1609605;85;27698;-81
2021/11/05 11:31:55;;;;;;;2.90;2.60;;;;;;;9.88;72.98;100590.02;1682956;84;25876;-81
2021/11/05 11:34:23;;;;;;;2.83;2.50;;;;;;;9.87;73.21;100587.00;1639506;85;25873;-80
2021/11/05 11:36:54;;;;;;;1.87;1.67;;;;;;;9.84;72.87;100591.37;1579027;86;26516;-81
2021/11/05 11:39:23;;;;;;;2.83;2.62;;;;;;;9.84;73.00;100591.37;1630077;86;25855;-81
2021/11/05 11:41:52;;;;;;;7.78;2.50;;;;;;;9.84;72.96;100597.56;1629789;87;27584;-81